sensor_id;sensor_type;location;lat;lon;timestamp;pressure;altitude;pressure_sealevel;temperature;humidity
54936;BME280;40838;50.676;7.838;2023-03-03T00:01:53;98736.22;;;-3.81;100.00
54936;BME280;40838;50.676;7.838;2023-03-03T00:04:20;98729.75;;;-3.85;100.00
54936;BME280;40838;50.676;7.838;2023-03-03T00:06:48;98738.53;;;-4.79;100.00
54936;BME280;40838;50.676;7.838;2023-03-03T00:09:16;98739.69;;;-4.11;100.00
54936;BME280;40838;50.676;7.838;2023-03-03T00:11:43;98734.06;;;-4.23;100.00
54936;BME280;40838;50.676;7.838;2023-03-03T00:14:20;98730.03;;;-4.03;100.00
54936;BME280;40838;50.676;7.838;2023-03-03T00:16:49;98735.00;;;-4.47;100.00
54936;BME280;40838;50.676;7.838;2023-03-03T00:19:18;98736.44;;;-4.92;100.00
54936;BME280;40838;50.676;7.838;2023-03-03T00:21:48;98743.28;;;-4.52;100.00
54936;BME280;40838;50.676;7.838;2023-03-03T00:24:21;98744.41;;;-4.46;100.00
54936;BME280;40838;50.676;7.838;2023-03-03T00:26:50;98747.41;;;-4.66;100.00
54936;BME280;40838;50.676;7.838;2023-03-03T00:29:30;98747.25;;;-4.64;100.00
54936;BME280;40838;50.676;7.838;2023-03-03T00:32:15;98752.88;;;-4.44;100.00
54936;BME280;40838;50.676;7.838;2023-03-03T00:34:44;98756.84;;;-4.65;100.00
54936;BME280;40838;50.676;7.838;2023-03-03T00:37:24;98755.03;;;-4.25;100.00
54936;BME280;40838;50.676;7.838;2023-03-03T00:40:00;98753.69;;;-4.52;100.00
54936;BME280;40838;50.676;7.838;2023-03-03T00:42:29;98758.59;;;-4.18;100.00
54936;BME280;40838;50.676;7.838;2023-03-03T00:45:00;98758.94;;;-4.21;100.00
54936;BME280;40838;50.676;7.838;2023-03-03T00:47:29;98761.94;;;-4.40;100.00
54936;BME280;40838;50.676;7.838;2023-03-03T00:50:17;98758.34;;;-4.78;100.00
54936;BME280;40838;50.676;7.838;2023-03-03T00:52:58;98758.56;;;-4.49;100.00
54936;BME280;40838;50.676;7.838;2023-03-03T00:55:30;98758.31;;;-4.70;100.00
54936;BME280;40838;50.676;7.838;2023-03-03T00:57:57;98763.22;;;-4.83;100.00
54936;BME280;40838;50.676;7.838;2023-03-03T01:00:29;98758.41;;;-5.03;100.00
54936;BME280;40838;50.676;7.838;2023-03-03T01:02:58;98759.38;;;-4.48;100.00
54936;BME280;40838;50.676;7.838;2023-03-03T01:05:26;98748.22;;;-4.26;100.00
54936;BME280;40838;50.676;7.838;2023-03-03T01:07:53;98759.59;;;-4.66;100.00
54936;BME280;40838;50.676;7.838;2023-03-03T01:10:21;98761.88;;;-5.35;100.00
54936;BME280;40838;50.676;7.838;2023-03-03T01:12:50;98764.75;;;-4.97;100.00
54936;BME280;40838;50.676;7.838;2023-03-03T01:15:17;98760.63;;;-4.83;100.00
54936;BME280;40838;50.676;7.838;2023-03-03T01:17:44;98756.78;;;-5.04;100.00
54936;BME280;40838;50.676;7.838;2023-03-03T01:20:13;98757.41;;;-4.94;100.00
54936;BME280;40838;50.676;7.838;2023-03-03T01:22:42;98751.28;;;-5.09;100.00
54936;BME280;40838;50.676;7.838;2023-03-03T01:25:09;98756.16;;;-5.39;100.00
54936;BME280;40838;50.676;7.838;2023-03-03T01:27:38;98747.53;;;-5.06;100.00
54936;BME280;40838;50.676;7.838;2023-03-03T01:30:08;98749.16;;;-4.97;100.00
54936;BME280;40838;50.676;7.838;2023-03-03T01:32:35;98743.09;;;-4.90;100.00
54936;BME280;40838;50.676;7.838;2023-03-03T01:35:17;98755.63;;;-4.93;100.00
54936;BME280;40838;50.676;7.838;2023-03-03T01:37:44;98754.72;;;-5.33;100.00
54936;BME280;40838;50.676;7.838;2023-03-03T01:40:15;98748.84;;;-5.11;100.00
54936;BME280;40838;50.676;7.838;2023-03-03T01:42:44;98751.63;;;-5.28;100.00
54936;BME280;40838;50.676;7.838;2023-03-03T01:45:22;98757.16;;;-5.64;100.00
54936;BME280;40838;50.676;7.838;2023-03-03T01:47:57;98752.22;;;-4.94;100.00
54936;BME280;40838;50.676;7.838;2023-03-03T01:50:32;98754.75;;;-4.77;100.00
54936;BME280;40838;50.676;7.838;2023-03-03T01:53:03;98760.63;;;-4.75;100.00
54936;BME280;40838;50.676;7.838;2023-03-03T01:55:33;98752.84;;;-4.83;100.00
54936;BME280;40838;50.676;7.838;2023-03-03T01:58:04;98758.09;;;-6.14;100.00
54936;BME280;40838;50.676;7.838;2023-03-03T02:00:35;98757.00;;;-5.63;100.00
54936;BME280;40838;50.676;7.838;2023-03-03T02:03:25;98750.69;;;-5.44;100.00
54936;BME280;40838;50.676;7.838;2023-03-03T02:05:56;98750.19;;;-5.56;100.00
54936;BME280;40838;50.676;7.838;2023-03-03T02:08:34;98741.75;;;-5.90;100.00
54936;BME280;40838;50.676;7.838;2023-03-03T02:11:03;98743.84;;;-5.86;100.00
54936;BME280;40838;50.676;7.838;2023-03-03T02:13:31;98745.97;;;-5.73;100.00
54936;BME280;40838;50.676;7.838;2023-03-03T02:15:59;98744.19;;;-5.72;100.00
54936;BME280;40838;50.676;7.838;2023-03-03T02:18:27;98755.84;;;-5.27;100.00
54936;BME280;40838;50.676;7.838;2023-03-03T02:21:06;98747.06;;;-5.10;100.00
54936;BME280;40838;50.676;7.838;2023-03-03T02:23:40;98750.50;;;-5.67;100.00
54936;BME280;40838;50.676;7.838;2023-03-03T02:26:11;98755.38;;;-5.39;100.00
54936;BME280;40838;50.676;7.838;2023-03-03T02:28:39;98754.41;;;-5.46;100.00
54936;BME280;40838;50.676;7.838;2023-03-03T02:31:10;98753.28;;;-5.52;100.00
54936;BME280;40838;50.676;7.838;2023-03-03T02:33:39;98760.75;;;-6.32;100.00
54936;BME280;40838;50.676;7.838;2023-03-03T02:36:08;98751.63;;;-5.78;100.00
54936;BME280;40838;50.676;7.838;2023-03-03T02:38:40;98756.19;;;-5.47;100.00
54936;BME280;40838;50.676;7.838;2023-03-03T02:41:17;98753.41;;;-5.53;100.00
54936;BME280;40838;50.676;7.838;2023-03-03T02:43:52;98749.22;;;-5.55;100.00
54936;BME280;40838;50.676;7.838;2023-03-03T02:46:23;98748.41;;;-5.63;100.00
54936;BME280;40838;50.676;7.838;2023-03-03T02:48:52;98744.03;;;-5.55;100.00
54936;BME280;40838;50.676;7.838;2023-03-03T02:51:22;98751.97;;;-5.56;100.00
54936;BME280;40838;50.676;7.838;2023-03-03T02:53:48;98752.28;;;-5.84;100.00
54936;BME280;40838;50.676;7.838;2023-03-03T02:56:18;98756.50;;;-5.42;100.00
54936;BME280;40838;50.676;7.838;2023-03-03T02:58:45;98762.34;;;-5.48;100.00
54936;BME280;40838;50.676;7.838;2023-03-03T03:01:12;98757.97;;;-5.31;100.00
54936;BME280;40838;50.676;7.838;2023-03-03T03:03:39;98759.28;;;-5.43;100.00
54936;BME280;40838;50.676;7.838;2023-03-03T03:06:06;98760.22;;;-5.93;100.00
54936;BME280;40838;50.676;7.838;2023-03-03T03:08:34;98765.53;;;-6.03;100.00
54936;BME280;40838;50.676;7.838;2023-03-03T03:11:01;98767.84;;;-5.84;100.00
54936;BME280;40838;50.676;7.838;2023-03-03T03:13:30;98762.00;;;-5.78;100.00
54936;BME280;40838;50.676;7.838;2023-03-03T03:15:58;98773.53;;;-5.80;100.00
54936;BME280;40838;50.676;7.838;2023-03-03T03:18:29;98776.13;;;-5.72;100.00
54936;BME280;40838;50.676;7.838;2023-03-03T03:21:05;98770.31;;;-5.58;100.00
54936;BME280;40838;50.676;7.838;2023-03-03T03:23:33;98769.66;;;-5.51;100.00
54936;BME280;40838;50.676;7.838;2023-03-03T03:26:00;98764.78;;;-5.87;100.00
54936;BME280;40838;50.676;7.838;2023-03-03T03:28:27;98767.00;;;-6.01;100.00
54936;BME280;40838;50.676;7.838;2023-03-03T03:30:58;98773.00;;;-6.08;100.00
54936;BME280;40838;50.676;7.838;2023-03-03T03:33:26;98776.31;;;-5.73;100.00
54936;BME280;40838;50.676;7.838;2023-03-03T03:35:54;98778.88;;;-5.90;100.00
54936;BME280;40838;50.676;7.838;2023-03-03T03:38:23;98769.56;;;-6.25;100.00
54936;BME280;40838;50.676;7.838;2023-03-03T03:40:54;98773.13;;;-6.18;100.00
54936;BME280;40838;50.676;7.838;2023-03-03T03:43:23;98771.22;;;-6.08;100.00
54936;BME280;40838;50.676;7.838;2023-03-03T03:45:49;98776.22;;;-6.14;100.00
54936;BME280;40838;50.676;7.838;2023-03-03T03:48:18;98779.41;;;-6.37;100.00
54936;BME280;40838;50.676;7.838;2023-03-03T03:50:47;98782.34;;;-6.24;100.00
54936;BME280;40838;50.676;7.838;2023-03-03T03:53:14;98785.97;;;-6.08;100.00
54936;BME280;40838;50.676;7.838;2023-03-03T03:55:42;98787.75;;;-6.09;100.00
54936;BME280;40838;50.676;7.838;2023-03-03T03:58:11;98782.56;;;-6.17;100.00
54936;BME280;40838;50.676;7.838;2023-03-03T04:00:39;98790.97;;;-6.23;100.00
54936;BME280;40838;50.676;7.838;2023-03-03T04:03:08;98791.38;;;-6.36;100.00
54936;BME280;40838;50.676;7.838;2023-03-03T04:05:38;98786.22;;;-6.28;100.00
54936;BME280;40838;50.676;7.838;2023-03-03T04:08:05;98794.72;;;-6.09;100.00
54936;BME280;40838;50.676;7.838;2023-03-03T04:10:32;98794.69;;;-6.60;100.00
54936;BME280;40838;50.676;7.838;2023-03-03T04:12:59;98781.03;;;-6.28;100.00
54936;BME280;40838;50.676;7.838;2023-03-03T04:15:28;98783.91;;;-5.88;100.00
54936;BME280;40838;50.676;7.838;2023-03-03T04:17:57;98782.13;;;-5.88;100.00
54936;BME280;40838;50.676;7.838;2023-03-03T04:20:26;98784.09;;;-6.32;100.00
54936;BME280;40838;50.676;7.838;2023-03-03T04:22:56;98785.59;;;-6.21;100.00
54936;BME280;40838;50.676;7.838;2023-03-03T04:25:25;98782.72;;;-6.10;100.00
54936;BME280;40838;50.676;7.838;2023-03-03T04:27:53;98790.66;;;-6.12;100.00
54936;BME280;40838;50.676;7.838;2023-03-03T04:30:21;98794.38;;;-6.57;100.00
54936;BME280;40838;50.676;7.838;2023-03-03T04:32:52;98797.22;;;-7.02;100.00
54936;BME280;40838;50.676;7.838;2023-03-03T04:35:25;98791.19;;;-7.29;100.00
54936;BME280;40838;50.676;7.838;2023-03-03T04:37:52;98796.44;;;-6.69;100.00
54936;BME280;40838;50.676;7.838;2023-03-03T04:40:20;98797.09;;;-6.66;100.00
54936;BME280;40838;50.676;7.838;2023-03-03T04:42:51;98796.13;;;-6.65;100.00
54936;BME280;40838;50.676;7.838;2023-03-03T04:45:17;98792.28;;;-6.61;100.00
54936;BME280;40838;50.676;7.838;2023-03-03T04:47:45;98788.72;;;-6.86;100.00
54936;BME280;40838;50.676;7.838;2023-03-03T04:50:13;98784.59;;;-7.23;100.00
54936;BME280;40838;50.676;7.838;2023-03-03T04:52:41;98782.56;;;-6.85;100.00
54936;BME280;40838;50.676;7.838;2023-03-03T04:55:10;98787.63;;;-7.10;100.00
54936;BME280;40838;50.676;7.838;2023-03-03T04:57:40;98785.31;;;-7.13;100.00
54936;BME280;40838;50.676;7.838;2023-03-03T05:00:08;98785.13;;;-6.94;100.00
54936;BME280;40838;50.676;7.838;2023-03-03T05:02:39;98791.97;;;-6.50;100.00
54936;BME280;40838;50.676;7.838;2023-03-03T05:05:10;98807.03;;;-7.32;100.00
54936;BME280;40838;50.676;7.838;2023-03-03T05:07:38;98803.72;;;-6.98;100.00
54936;BME280;40838;50.676;7.838;2023-03-03T05:10:06;98803.59;;;-7.15;100.00
54936;BME280;40838;50.676;7.838;2023-03-03T05:12:33;98800.56;;;-6.84;100.00
54936;BME280;40838;50.676;7.838;2023-03-03T05:15:01;98803.66;;;-7.06;100.00
54936;BME280;40838;50.676;7.838;2023-03-03T05:17:33;98809.28;;;-7.37;100.00
54936;BME280;40838;50.676;7.838;2023-03-03T05:20:00;98820.00;;;-7.06;100.00
54936;BME280;40838;50.676;7.838;2023-03-03T05:22:27;98814.56;;;-7.21;100.00
54936;BME280;40838;50.676;7.838;2023-03-03T05:24:55;98822.22;;;-6.93;100.00
54936;BME280;40838;50.676;7.838;2023-03-03T05:27:22;98820.59;;;-7.12;100.00
54936;BME280;40838;50.676;7.838;2023-03-03T05:29:49;98820.41;;;-7.19;100.00
54936;BME280;40838;50.676;7.838;2023-03-03T05:32:17;98811.94;;;-7.03;100.00
54936;BME280;40838;50.676;7.838;2023-03-03T05:34:44;98816.78;;;-7.26;100.00
54936;BME280;40838;50.676;7.838;2023-03-03T05:37:11;98827.41;;;-7.37;100.00
54936;BME280;40838;50.676;7.838;2023-03-03T05:39:40;98824.94;;;-6.95;100.00
54936;BME280;40838;50.676;7.838;2023-03-03T05:42:11;98819.88;;;-6.78;100.00
54936;BME280;40838;50.676;7.838;2023-03-03T05:44:45;98826.91;;;-7.15;100.00
54936;BME280;40838;50.676;7.838;2023-03-03T05:47:13;98829.19;;;-6.94;100.00
54936;BME280;40838;50.676;7.838;2023-03-03T05:49:41;98820.53;;;-7.20;100.00
54936;BME280;40838;50.676;7.838;2023-03-03T05:52:08;98827.56;;;-7.12;100.00
54936;BME280;40838;50.676;7.838;2023-03-03T05:54:36;98832.84;;;-7.22;100.00
54936;BME280;40838;50.676;7.838;2023-03-03T05:57:03;98823.56;;;-6.55;100.00
54936;BME280;40838;50.676;7.838;2023-03-03T05:59:30;98821.25;;;-6.92;100.00
54936;BME280;40838;50.676;7.838;2023-03-03T06:01:57;98822.81;;;-6.99;100.00
54936;BME280;40838;50.676;7.838;2023-03-03T06:04:24;98821.53;;;-6.95;100.00
54936;BME280;40838;50.676;7.838;2023-03-03T06:06:52;98828.41;;;-7.30;100.00
54936;BME280;40838;50.676;7.838;2023-03-03T06:09:19;98820.84;;;-7.23;100.00
54936;BME280;40838;50.676;7.838;2023-03-03T06:11:46;98823.50;;;-6.63;100.00
54936;BME280;40838;50.676;7.838;2023-03-03T06:14:13;98835.09;;;-6.49;100.00
54936;BME280;40838;50.676;7.838;2023-03-03T06:16:39;98834.91;;;-6.82;100.00
54936;BME280;40838;50.676;7.838;2023-03-03T06:19:06;98835.81;;;-6.91;100.00
54936;BME280;40838;50.676;7.838;2023-03-03T06:21:33;98842.25;;;-6.95;100.00
54936;BME280;40838;50.676;7.838;2023-03-03T06:24:05;98843.31;;;-6.80;100.00
54936;BME280;40838;50.676;7.838;2023-03-03T06:26:33;98852.22;;;-6.56;100.00
54936;BME280;40838;50.676;7.838;2023-03-03T06:29:01;98853.34;;;-6.59;100.00
54936;BME280;40838;50.676;7.838;2023-03-03T06:31:29;98866.03;;;-5.63;100.00
54936;BME280;40838;50.676;7.838;2023-03-03T06:34:05;98859.25;;;-4.74;98.19
54936;BME280;40838;50.676;7.838;2023-03-03T06:36:32;98856.50;;;-5.21;99.94
54936;BME280;40838;50.676;7.838;2023-03-03T06:39:01;98864.88;;;-4.54;97.94
54936;BME280;40838;50.676;7.838;2023-03-03T06:41:29;98872.34;;;-3.64;92.78
54936;BME280;40838;50.676;7.838;2023-03-03T06:43:56;98878.84;;;-3.60;88.08
54936;BME280;40838;50.676;7.838;2023-03-03T06:46:24;98885.53;;;-2.96;87.75
54936;BME280;40838;50.676;7.838;2023-03-03T06:48:51;98880.97;;;-2.56;85.36
54936;BME280;40838;50.676;7.838;2023-03-03T06:51:22;98878.50;;;-3.11;86.79
54936;BME280;40838;50.676;7.838;2023-03-03T06:53:55;98883.56;;;-1.97;82.13
54936;BME280;40838;50.676;7.838;2023-03-03T06:56:26;98886.97;;;-0.18;77.96
54936;BME280;40838;50.676;7.838;2023-03-03T06:58:53;98882.16;;;1.15;66.32
54936;BME280;40838;50.676;7.838;2023-03-03T07:01:22;98891.81;;;1.47;60.67
54936;BME280;40838;50.676;7.838;2023-03-03T07:03:49;98886.75;;;1.66;59.33
54936;BME280;40838;50.676;7.838;2023-03-03T07:06:20;98887.53;;;1.80;58.20
54936;BME280;40838;50.676;7.838;2023-03-03T07:08:49;98893.34;;;1.95;59.49
54936;BME280;40838;50.676;7.838;2023-03-03T07:11:18;98901.41;;;2.58;56.02
54936;BME280;40838;50.676;7.838;2023-03-03T07:13:48;98899.34;;;2.15;57.91
54936;BME280;40838;50.676;7.838;2023-03-03T07:16:17;98904.38;;;3.00;57.31
54936;BME280;40838;50.676;7.838;2023-03-03T07:18:49;98901.84;;;2.55;55.97
54936;BME280;40838;50.676;7.838;2023-03-03T07:21:19;98899.03;;;2.82;55.62
54936;BME280;40838;50.676;7.838;2023-03-03T07:23:48;98903.09;;;2.84;55.04
54936;BME280;40838;50.676;7.838;2023-03-03T07:26:24;98901.66;;;3.14;55.85
54936;BME280;40838;50.676;7.838;2023-03-03T07:28:55;98901.34;;;3.28;54.34
54936;BME280;40838;50.676;7.838;2023-03-03T07:31:31;98913.31;;;2.09;58.04
54936;BME280;40838;50.676;7.838;2023-03-03T10:31:05;99012.59;;;2.14;85.99
54936;BME280;40838;50.676;7.838;2023-03-03T10:33:41;98999.81;;;2.89;85.87
54936;BME280;40838;50.676;7.838;2023-03-03T10:36:21;99002.97;;;2.66;85.09
54936;BME280;40838;50.676;7.838;2023-03-03T10:39:00;98997.91;;;3.66;79.56
54936;BME280;40838;50.676;7.838;2023-03-03T10:41:42;99004.44;;;4.81;75.71
54936;BME280;40838;50.676;7.838;2023-03-03T10:44:28;99005.94;;;3.96;76.74
54936;BME280;40838;50.676;7.838;2023-03-03T10:50:01;98989.28;;;3.27;79.94
54936;BME280;40838;50.676;7.838;2023-03-03T10:52:38;98996.13;;;3.60;79.87
54936;BME280;40838;50.676;7.838;2023-03-03T10:55:39;98999.44;;;3.17;80.37
54936;BME280;40838;50.676;7.838;2023-03-03T10:58:24;98995.47;;;3.40;80.96
54936;BME280;40838;50.676;7.838;2023-03-03T11:00:59;98996.59;;;3.50;81.21
54936;BME280;40838;50.676;7.838;2023-03-03T11:03:41;98992.56;;;2.84;84.65
54936;BME280;40838;50.676;7.838;2023-03-03T11:06:14;98991.34;;;4.74;77.22
54936;BME280;40838;50.676;7.838;2023-03-03T11:08:47;98994.13;;;3.56;79.40
54936;BME280;40838;50.676;7.838;2023-03-03T11:11:18;99001.53;;;3.90;79.49
54936;BME280;40838;50.676;7.838;2023-03-03T11:13:53;98991.97;;;3.96;80.13
54936;BME280;40838;50.676;7.838;2023-03-03T11:16:40;98994.53;;;4.03;79.55
54936;BME280;40838;50.676;7.838;2023-03-03T11:19:25;98989.66;;;3.56;80.28
54936;BME280;40838;50.676;7.838;2023-03-03T11:22:01;98992.56;;;3.73;79.85
54936;BME280;40838;50.676;7.838;2023-03-03T11:24:51;98998.00;;;4.58;80.71
54936;BME280;40838;50.676;7.838;2023-03-03T11:27:32;98997.88;;;5.32;75.62
54936;BME280;40838;50.676;7.838;2023-03-03T11:30:28;98989.50;;;3.76;80.68
54936;BME280;40838;50.676;7.838;2023-03-03T11:33:03;98982.56;;;4.92;74.17
54936;BME280;40838;50.676;7.838;2023-03-03T11:35:41;98986.91;;;4.56;77.74
54936;BME280;40838;50.676;7.838;2023-03-03T11:40:50;98977.53;;;4.17;78.59
54936;BME280;40838;50.676;7.838;2023-03-03T11:43:23;98966.72;;;3.63;81.58
54936;BME280;40838;50.676;7.838;2023-03-03T11:45:55;98971.41;;;4.60;76.64
54936;BME280;40838;50.676;7.838;2023-03-03T11:48:33;98970.81;;;4.21;77.90
54936;BME280;40838;50.676;7.838;2023-03-03T11:51:05;98958.19;;;4.78;76.72
54936;BME280;40838;50.676;7.838;2023-03-03T11:53:45;98966.78;;;4.18;80.77
54936;BME280;40838;50.676;7.838;2023-03-03T11:56:21;98956.69;;;4.52;77.54
54936;BME280;40838;50.676;7.838;2023-03-03T11:58:56;98959.38;;;5.36;76.92
54936;BME280;40838;50.676;7.838;2023-03-03T12:01:29;98954.81;;;5.01;76.31
54936;BME280;40838;50.676;7.838;2023-03-03T12:04:04;98958.03;;;3.99;79.97
54936;BME280;40838;50.676;7.838;2023-03-03T12:06:39;98947.50;;;3.56;82.72
54936;BME280;40838;50.676;7.838;2023-03-03T12:09:40;98948.97;;;3.95;80.15
54936;BME280;40838;50.676;7.838;2023-03-03T12:12:13;98945.25;;;3.35;82.36
54936;BME280;40838;50.676;7.838;2023-03-03T12:14:59;98939.94;;;3.66;81.50
54936;BME280;40838;50.676;7.838;2023-03-03T12:17:38;98941.53;;;4.29;79.52
54936;BME280;40838;50.676;7.838;2023-03-03T12:20:17;98936.16;;;3.99;80.14
54936;BME280;40838;50.676;7.838;2023-03-03T12:22:59;98936.66;;;3.46;81.03
54936;BME280;40838;50.676;7.838;2023-03-03T12:25:34;98935.13;;;3.82;80.97
54936;BME280;40838;50.676;7.838;2023-03-03T12:28:10;98925.84;;;3.29;81.37
54936;BME280;40838;50.676;7.838;2023-03-03T12:33:50;98930.63;;;3.39;80.56
54936;BME280;40838;50.676;7.838;2023-03-03T12:37:00;98918.84;;;3.66;82.14
54936;BME280;40838;50.676;7.838;2023-03-03T12:42:24;98926.25;;;3.76;79.13
54936;BME280;40838;50.676;7.838;2023-03-03T12:45:01;98902.25;;;3.66;78.81
54936;BME280;40838;50.676;7.838;2023-03-03T12:47:37;98909.50;;;3.89;78.32
54936;BME280;40838;50.676;7.838;2023-03-03T12:50:21;98908.03;;;3.74;79.49
54936;BME280;40838;50.676;7.838;2023-03-03T12:52:58;98907.97;;;3.56;82.50
54936;BME280;40838;50.676;7.838;2023-03-03T12:55:42;98907.13;;;3.62;82.60
54936;BME280;40838;50.676;7.838;2023-03-03T12:58:19;98910.19;;;3.59;82.46
54936;BME280;40838;50.676;7.838;2023-03-03T13:00:53;98905.03;;;4.44;81.74
54936;BME280;40838;50.676;7.838;2023-03-03T13:03:34;98908.69;;;4.25;79.54
54936;BME280;40838;50.676;7.838;2023-03-03T13:06:13;98892.91;;;4.55;76.71
54936;BME280;40838;50.676;7.838;2023-03-03T13:09:06;98894.13;;;4.04;79.94
54936;BME280;40838;50.676;7.838;2023-03-03T13:11:53;98911.38;;;3.38;80.95
54936;BME280;40838;50.676;7.838;2023-03-03T13:14:28;98907.44;;;3.91;79.42
54936;BME280;40838;50.676;7.838;2023-03-03T13:17:08;98900.41;;;4.40;78.25
54936;BME280;40838;50.676;7.838;2023-03-03T13:19:45;98890.44;;;4.23;75.89
54936;BME280;40838;50.676;7.838;2023-03-03T13:22:19;98899.38;;;4.59;76.09
54936;BME280;40838;50.676;7.838;2023-03-03T13:25:00;98900.41;;;4.40;75.92
54936;BME280;40838;50.676;7.838;2023-03-03T13:27:32;98908.38;;;4.82;75.78
54936;BME280;40838;50.676;7.838;2023-03-03T13:30:16;98903.03;;;4.88;72.06
54936;BME280;40838;50.676;7.838;2023-03-03T13:32:51;98898.38;;;5.26;74.75
54936;BME280;40838;50.676;7.838;2023-03-03T13:35:30;98901.38;;;5.29;70.31
54936;BME280;40838;50.676;7.838;2023-03-03T13:38:00;98895.34;;;4.57;75.96
54936;BME280;40838;50.676;7.838;2023-03-03T13:40:38;98900.09;;;4.78;74.27
54936;BME280;40838;50.676;7.838;2023-03-03T13:43:14;98896.00;;;4.52;76.01
54936;BME280;40838;50.676;7.838;2023-03-03T13:45:55;98898.22;;;4.67;75.53
54936;BME280;40838;50.676;7.838;2023-03-03T13:51:35;98894.84;;;4.90;75.60
54936;BME280;40838;50.676;7.838;2023-03-03T13:54:14;98894.69;;;4.73;74.79
54936;BME280;40838;50.676;7.838;2023-03-03T13:57:07;98887.56;;;5.04;75.25
54936;BME280;40838;50.676;7.838;2023-03-03T13:59:58;98888.63;;;5.26;69.43
54936;BME280;40838;50.676;7.838;2023-03-03T14:02:48;98894.56;;;5.10;68.77
54936;BME280;40838;50.676;7.838;2023-03-03T14:05:25;98896.72;;;4.59;73.43
54936;BME280;40838;50.676;7.838;2023-03-03T14:08:01;98886.00;;;4.24;76.88
54936;BME280;40838;50.676;7.838;2023-03-03T14:10:37;98885.09;;;4.90;74.27
54936;BME280;40838;50.676;7.838;2023-03-03T14:13:11;98888.63;;;5.26;71.19
54936;BME280;40838;50.676;7.838;2023-03-03T14:18:30;98890.56;;;4.65;76.04
54936;BME280;40838;50.676;7.838;2023-03-03T14:29:59;98885.94;;;4.91;77.96
54936;BME280;40838;50.676;7.838;2023-03-03T14:36:13;98880.72;;;4.24;79.71
54936;BME280;40838;50.676;7.838;2023-03-03T14:38:45;98879.19;;;4.16;80.16
54936;BME280;40838;50.676;7.838;2023-03-03T14:41:20;98884.16;;;4.43;80.27
54936;BME280;40838;50.676;7.838;2023-03-03T14:47:00;98883.84;;;4.93;75.61
54936;BME280;40838;50.676;7.838;2023-03-03T14:49:30;98873.94;;;4.77;77.08
54936;BME280;40838;50.676;7.838;2023-03-03T14:52:01;98879.59;;;4.92;76.60
54936;BME280;40838;50.676;7.838;2023-03-03T14:54:33;98884.81;;;4.20;77.83
54936;BME280;40838;50.676;7.838;2023-03-03T14:57:08;98879.63;;;4.32;78.32
54936;BME280;40838;50.676;7.838;2023-03-03T14:59:37;98873.16;;;4.46;76.81
54936;BME280;40838;50.676;7.838;2023-03-03T15:02:30;98874.72;;;3.80;80.39
54936;BME280;40838;50.676;7.838;2023-03-03T15:05:19;98869.13;;;4.25;79.80
54936;BME280;40838;50.676;7.838;2023-03-03T15:07:50;98880.22;;;3.79;82.64
54936;BME280;40838;50.676;7.838;2023-03-03T15:10:30;98868.53;;;4.23;80.29
54936;BME280;40838;50.676;7.838;2023-03-03T15:12:58;98866.28;;;4.08;80.05
54936;BME280;40838;50.676;7.838;2023-03-03T15:15:33;98873.94;;;3.36;83.40
54936;BME280;40838;50.676;7.838;2023-03-03T15:18:09;98873.09;;;3.79;80.76
54936;BME280;40838;50.676;7.838;2023-03-03T15:20:43;98869.63;;;3.42;84.54
54936;BME280;40838;50.676;7.838;2023-03-03T15:23:33;98874.31;;;3.15;83.88
54936;BME280;40838;50.676;7.838;2023-03-03T15:26:05;98867.22;;;2.90;86.92
54936;BME280;40838;50.676;7.838;2023-03-03T15:28:42;98868.72;;;3.29;85.77
54936;BME280;40838;50.676;7.838;2023-03-03T15:31:21;98865.44;;;2.84;87.03
54936;BME280;40838;50.676;7.838;2023-03-03T15:34:01;98869.91;;;2.45;87.97
54936;BME280;40838;50.676;7.838;2023-03-03T15:36:35;98869.03;;;2.58;88.91
54936;BME280;40838;50.676;7.838;2023-03-03T15:39:15;98875.34;;;2.50;90.91
54936;BME280;40838;50.676;7.838;2023-03-03T15:41:52;98874.22;;;2.26;90.65
54936;BME280;40838;50.676;7.838;2023-03-03T15:44:29;98866.66;;;2.50;88.69
54936;BME280;40838;50.676;7.838;2023-03-03T15:47:12;98871.75;;;2.38;89.70
54936;BME280;40838;50.676;7.838;2023-03-03T15:49:56;98871.00;;;3.01;87.60
54936;BME280;40838;50.676;7.838;2023-03-03T15:52:40;98863.28;;;2.99;87.31
54936;BME280;40838;50.676;7.838;2023-03-03T15:55:23;98866.47;;;3.08;85.59
54936;BME280;40838;50.676;7.838;2023-03-03T15:58:02;98870.94;;;2.37;89.36
54936;BME280;40838;50.676;7.838;2023-03-03T16:00:36;98870.75;;;2.32;89.70
54936;BME280;40838;50.676;7.838;2023-03-03T16:03:11;98873.94;;;1.89;91.40
54936;BME280;40838;50.676;7.838;2023-03-03T16:05:51;98883.06;;;1.93;92.24
54936;BME280;40838;50.676;7.838;2023-03-03T16:08:23;98880.84;;;1.84;92.52
54936;BME280;40838;50.676;7.838;2023-03-03T16:11:02;98884.91;;;1.80;92.44
54936;BME280;40838;50.676;7.838;2023-03-03T16:13:39;98883.66;;;1.89;92.64
54936;BME280;40838;50.676;7.838;2023-03-03T16:16:23;98894.78;;;1.78;92.90
54936;BME280;40838;50.676;7.838;2023-03-03T16:19:05;98894.13;;;2.09;92.63
54936;BME280;40838;50.676;7.838;2023-03-03T16:21:53;98894.59;;;2.37;90.16
54936;BME280;40838;50.676;7.838;2023-03-03T16:24:32;98909.19;;;1.62;92.61
54936;BME280;40838;50.676;7.838;2023-03-03T16:27:12;98907.59;;;1.41;94.47
54936;BME280;40838;50.676;7.838;2023-03-03T16:29:58;98908.16;;;1.43;94.73
54936;BME280;40838;50.676;7.838;2023-03-03T16:32:35;98913.25;;;1.44;95.59
54936;BME280;40838;50.676;7.838;2023-03-03T16:35:20;98902.28;;;0.74;97.85
54936;BME280;40838;50.676;7.838;2023-03-03T16:37:57;98912.00;;;0.94;97.78
54936;BME280;40838;50.676;7.838;2023-03-03T16:40:27;98909.16;;;0.95;97.51
54936;BME280;40838;50.676;7.838;2023-03-03T16:43:02;98913.63;;;0.88;98.16
54936;BME280;40838;50.676;7.838;2023-03-03T16:45:33;98921.25;;;0.76;99.24
54936;BME280;40838;50.676;7.838;2023-03-03T16:48:21;98922.47;;;0.80;98.92
54936;BME280;40838;50.676;7.838;2023-03-03T16:51:04;98934.94;;;0.65;99.55
54936;BME280;40838;50.676;7.838;2023-03-03T16:53:49;98928.38;;;0.34;100.00
54936;BME280;40838;50.676;7.838;2023-03-03T16:56:20;98937.16;;;0.13;100.00
54936;BME280;40838;50.676;7.838;2023-03-03T16:58:58;98939.47;;;0.30;100.00
54936;BME280;40838;50.676;7.838;2023-03-03T17:01:37;98944.19;;;0.06;100.00
54936;BME280;40838;50.676;7.838;2023-03-03T17:04:08;98943.34;;;-0.29;100.00